sensor_id;sensor_type;location;lat;lon;timestamp;P1;durP1;ratioP1;P2;durP2;ratioP2
5900;SDS011;2976;49.764;9.796;2023-02-28T00:00:45;6.40;;;3.70;;
5900;SDS011;2976;49.764;9.796;2023-02-28T00:03:10;8.10;;;3.37;;
5900;SDS011;2976;49.764;9.796;2023-02-28T00:05:36;8.70;;;3.80;;
5900;SDS011;2976;49.764;9.796;2023-02-28T00:08:01;5.57;;;3.73;;
5900;SDS011;2976;49.764;9.796;2023-02-28T00:10:28;6.23;;;3.47;;
5900;SDS011;2976;49.764;9.796;2023-02-28T00:12:55;5.32;;;4.70;;
5900;SDS011;2976;49.764;9.796;2023-02-28T00:15:24;6.53;;;4.30;;
5900;SDS011;2976;49.764;9.796;2023-02-28T00:17:49;4.73;;;4.23;;
5900;SDS011;2976;49.764;9.796;2023-02-28T00:20:15;5.23;;;3.53;;
5900;SDS011;2976;49.764;9.796;2023-02-28T00:22:42;14.73;;;4.65;;
5900;SDS011;2976;49.764;9.796;2023-02-28T00:25:10;5.25;;;3.28;;
5900;SDS011;2976;49.764;9.796;2023-02-28T00:27:37;6.07;;;3.83;;
5900;SDS011;2976;49.764;9.796;2023-02-28T00:30:03;7.40;;;4.40;;
5900;SDS011;2976;49.764;9.796;2023-02-28T00:32:30;4.68;;;3.50;;
5900;SDS011;2976;49.764;9.796;2023-02-28T00:34:56;6.30;;;3.93;;
5900;SDS011;2976;49.764;9.796;2023-02-28T00:37:22;6.87;;;4.80;;
5900;SDS011;2976;49.764;9.796;2023-02-28T00:39:47;5.72;;;3.50;;
5900;SDS011;2976;49.764;9.796;2023-02-28T00:42:13;7.30;;;3.97;;
5900;SDS011;2976;49.764;9.796;2023-02-28T00:44:39;6.30;;;3.87;;
5900;SDS011;2976;49.764;9.796;2023-02-28T00:47:04;6.00;;;4.10;;
5900;SDS011;2976;49.764;9.796;2023-02-28T00:49:30;6.50;;;4.13;;
5900;SDS011;2976;49.764;9.796;2023-02-28T00:51:56;7.50;;;4.30;;
5900;SDS011;2976;49.764;9.796;2023-02-28T00:54:21;5.47;;;3.53;;
5900;SDS011;2976;49.764;9.796;2023-02-28T00:56:48;3.80;;;3.42;;
5900;SDS011;2976;49.764;9.796;2023-02-28T00:59:14;5.40;;;3.80;;
5900;SDS011;2976;49.764;9.796;2023-02-28T01:01:41;5.47;;;3.80;;
5900;SDS011;2976;49.764;9.796;2023-02-28T01:04:07;6.20;;;4.22;;
5900;SDS011;2976;49.764;9.796;2023-02-28T01:06:33;5.47;;;4.50;;
5900;SDS011;2976;49.764;9.796;2023-02-28T01:08:59;7.10;;;4.20;;
5900;SDS011;2976;49.764;9.796;2023-02-28T01:11:24;5.90;;;4.37;;
5900;SDS011;2976;49.764;9.796;2023-02-28T01:13:50;5.40;;;3.90;;
5900;SDS011;2976;49.764;9.796;2023-02-28T01:16:16;10.93;;;4.40;;
5900;SDS011;2976;49.764;9.796;2023-02-28T01:18:42;6.47;;;3.85;;
5900;SDS011;2976;49.764;9.796;2023-02-28T01:21:10;4.33;;;3.87;;
5900;SDS011;2976;49.764;9.796;2023-02-28T01:23:38;4.07;;;3.75;;
5900;SDS011;2976;49.764;9.796;2023-02-28T01:26:05;4.47;;;3.97;;
5900;SDS011;2976;49.764;9.796;2023-02-28T01:28:32;5.78;;;4.50;;
5900;SDS011;2976;49.764;9.796;2023-02-28T01:30:57;5.17;;;4.07;;
5900;SDS011;2976;49.764;9.796;2023-02-28T01:33:23;4.97;;;3.50;;
5900;SDS011;2976;49.764;9.796;2023-02-28T01:35:48;6.53;;;4.10;;
5900;SDS011;2976;49.764;9.796;2023-02-28T01:38:14;6.80;;;3.83;;
5900;SDS011;2976;49.764;9.796;2023-02-28T01:40:40;6.40;;;3.93;;
5900;SDS011;2976;49.764;9.796;2023-02-28T01:43:54;4.90;;;3.90;;
5900;SDS011;2976;49.764;9.796;2023-02-28T01:46:17;4.82;;;3.90;;
5900;SDS011;2976;49.764;9.796;2023-02-28T01:48:44;3.40;;;3.10;;
5900;SDS011;2976;49.764;9.796;2023-02-28T01:51:17;8.07;;;4.75;;
5900;SDS011;2976;49.764;9.796;2023-02-28T01:53:58;6.72;;;3.70;;
5900;SDS011;2976;49.764;9.796;2023-02-28T01:56:29;5.53;;;3.60;;
5900;SDS011;2976;49.764;9.796;2023-02-28T01:58:58;7.90;;;4.60;;
5900;SDS011;2976;49.764;9.796;2023-02-28T02:01:24;5.43;;;4.33;;
5900;SDS011;2976;49.764;9.796;2023-02-28T02:03:56;6.03;;;3.92;;
5900;SDS011;2976;49.764;9.796;2023-02-28T02:06:56;7.68;;;4.65;;
5900;SDS011;2976;49.764;9.796;2023-02-28T02:09:15;6.90;;;4.65;;
5900;SDS011;2976;49.764;9.796;2023-02-28T02:11:42;6.40;;;4.80;;
5900;SDS011;2976;49.764;9.796;2023-02-28T02:19:37;8.98;;;4.13;;
5900;SDS011;2976;49.764;9.796;2023-02-28T02:28:12;6.00;;;3.75;;
5900;SDS011;2976;49.764;9.796;2023-02-28T02:30:44;4.97;;;3.78;;
5900;SDS011;2976;49.764;9.796;2023-02-28T02:36:28;5.72;;;4.32;;
5900;SDS011;2976;49.764;9.796;2023-02-28T02:41:54;7.13;;;4.55;;
5900;SDS011;2976;49.764;9.796;2023-02-28T02:46:51;4.57;;;3.80;;
5900;SDS011;2976;49.764;9.796;2023-02-28T02:49:28;6.72;;;4.43;;
5900;SDS011;2976;49.764;9.796;2023-02-28T02:51:57;9.20;;;4.82;;
5900;SDS011;2976;49.764;9.796;2023-02-28T02:54:29;8.35;;;4.53;;
5900;SDS011;2976;49.764;9.796;2023-02-28T02:56:59;5.10;;;3.53;;
5900;SDS011;2976;49.764;9.796;2023-02-28T02:59:28;5.20;;;4.07;;
5900;SDS011;2976;49.764;9.796;2023-02-28T03:01:56;6.65;;;4.53;;
5900;SDS011;2976;49.764;9.796;2023-02-28T03:04:25;9.23;;;4.80;;
5900;SDS011;2976;49.764;9.796;2023-02-28T03:06:55;7.70;;;4.20;;
5900;SDS011;2976;49.764;9.796;2023-02-28T03:09:21;5.80;;;4.40;;
5900;SDS011;2976;49.764;9.796;2023-02-28T03:11:47;5.75;;;4.32;;
5900;SDS011;2976;49.764;9.796;2023-02-28T03:16:59;7.20;;;4.90;;
5900;SDS011;2976;49.764;9.796;2023-02-28T03:25:10;5.97;;;4.68;;
5900;SDS011;2976;49.764;9.796;2023-02-28T03:30:22;7.78;;;4.32;;
5900;SDS011;2976;49.764;9.796;2023-02-28T03:33:05;6.43;;;4.88;;
5900;SDS011;2976;49.764;9.796;2023-02-28T03:35:32;7.45;;;4.90;;
5900;SDS011;2976;49.764;9.796;2023-02-28T03:38:22;9.48;;;5.43;;
5900;SDS011;2976;49.764;9.796;2023-02-28T03:40:58;5.90;;;4.60;;
5900;SDS011;2976;49.764;9.796;2023-02-28T03:43:41;5.68;;;4.32;;
5900;SDS011;2976;49.764;9.796;2023-02-28T03:46:12;7.85;;;5.60;;
5900;SDS011;2976;49.764;9.796;2023-02-28T03:48:43;6.72;;;4.53;;
5900;SDS011;2976;49.764;9.796;2023-02-28T03:51:14;6.97;;;4.70;;
5900;SDS011;2976;49.764;9.796;2023-02-28T03:53:44;7.78;;;4.68;;
5900;SDS011;2976;49.764;9.796;2023-02-28T03:59:04;6.65;;;5.13;;
5900;SDS011;2976;49.764;9.796;2023-02-28T04:04:06;8.75;;;4.50;;
5900;SDS011;2976;49.764;9.796;2023-02-28T04:06:32;10.63;;;4.85;;
5900;SDS011;2976;49.764;9.796;2023-02-28T04:08:59;7.20;;;5.30;;
5900;SDS011;2976;49.764;9.796;2023-02-28T04:14:03;7.22;;;4.68;;
5900;SDS011;2976;49.764;9.796;2023-02-28T04:16:30;7.88;;;5.00;;
5900;SDS011;2976;49.764;9.796;2023-02-28T04:18:57;5.50;;;4.35;;
5900;SDS011;2976;49.764;9.796;2023-02-28T04:21:28;7.30;;;4.53;;
5900;SDS011;2976;49.764;9.796;2023-02-28T04:23:55;7.88;;;5.03;;
5900;SDS011;2976;49.764;9.796;2023-02-28T04:26:21;5.57;;;4.40;;
5900;SDS011;2976;49.764;9.796;2023-02-28T04:28:46;9.83;;;5.60;;
5900;SDS011;2976;49.764;9.796;2023-02-28T04:31:12;6.50;;;4.27;;
5900;SDS011;2976;49.764;9.796;2023-02-28T04:33:37;7.10;;;4.70;;
5900;SDS011;2976;49.764;9.796;2023-02-28T04:36:04;7.97;;;4.70;;
5900;SDS011;2976;49.764;9.796;2023-02-28T04:38:35;5.47;;;4.20;;
5900;SDS011;2976;49.764;9.796;2023-02-28T04:41:02;8.02;;;5.20;;
5900;SDS011;2976;49.764;9.796;2023-02-28T04:43:28;6.03;;;4.07;;
5900;SDS011;2976;49.764;9.796;2023-02-28T04:45:55;7.88;;;4.90;;
5900;SDS011;2976;49.764;9.796;2023-02-28T04:48:21;4.30;;;3.90;;
5900;SDS011;2976;49.764;9.796;2023-02-28T04:50:48;8.30;;;3.65;;
5900;SDS011;2976;49.764;9.796;2023-02-28T04:53:13;6.60;;;4.43;;
5900;SDS011;2976;49.764;9.796;2023-02-28T04:55:39;8.97;;;4.30;;
5900;SDS011;2976;49.764;9.796;2023-02-28T04:58:05;6.97;;;5.00;;
5900;SDS011;2976;49.764;9.796;2023-02-28T05:00:30;4.07;;;3.67;;
5900;SDS011;2976;49.764;9.796;2023-02-28T05:02:56;6.10;;;3.70;;
5900;SDS011;2976;49.764;9.796;2023-02-28T05:05:21;8.90;;;4.03;;
5900;SDS011;2976;49.764;9.796;2023-02-28T05:07:47;7.40;;;4.23;;
5900;SDS011;2976;49.764;9.796;2023-02-28T05:10:12;5.67;;;4.17;;
5900;SDS011;2976;49.764;9.796;2023-02-28T05:12:38;5.00;;;4.20;;
5900;SDS011;2976;49.764;9.796;2023-02-28T05:15:04;8.43;;;4.83;;
5900;SDS011;2976;49.764;9.796;2023-02-28T05:17:30;5.10;;;3.78;;
5900;SDS011;2976;49.764;9.796;2023-02-28T05:19:55;5.70;;;4.10;;
5900;SDS011;2976;49.764;9.796;2023-02-28T05:22:21;7.80;;;4.40;;
5900;SDS011;2976;49.764;9.796;2023-02-28T05:24:47;7.23;;;3.90;;
5900;SDS011;2976;49.764;9.796;2023-02-28T05:27:12;8.40;;;4.00;;
5900;SDS011;2976;49.764;9.796;2023-02-28T05:29:38;6.60;;;3.80;;
5900;SDS011;2976;49.764;9.796;2023-02-28T05:32:08;6.85;;;4.05;;
5900;SDS011;2976;49.764;9.796;2023-02-28T05:34:35;5.38;;;4.10;;
5900;SDS011;2976;49.764;9.796;2023-02-28T05:37:02;6.47;;;4.03;;
5900;SDS011;2976;49.764;9.796;2023-02-28T05:39:27;5.77;;;3.90;;
5900;SDS011;2976;49.764;9.796;2023-02-28T05:41:53;5.77;;;3.90;;
5900;SDS011;2976;49.764;9.796;2023-02-28T05:44:18;6.23;;;4.30;;
5900;SDS011;2976;49.764;9.796;2023-02-28T05:46:44;9.37;;;5.00;;
5900;SDS011;2976;49.764;9.796;2023-02-28T05:49:09;7.80;;;4.00;;
5900;SDS011;2976;49.764;9.796;2023-02-28T05:51:35;7.73;;;4.13;;
5900;SDS011;2976;49.764;9.796;2023-02-28T05:54:01;10.07;;;4.18;;
5900;SDS011;2976;49.764;9.796;2023-02-28T05:56:27;8.00;;;5.50;;
5900;SDS011;2976;49.764;9.796;2023-02-28T05:58:53;6.73;;;3.97;;
5900;SDS011;2976;49.764;9.796;2023-02-28T06:01:20;7.60;;;4.77;;
5900;SDS011;2976;49.764;9.796;2023-02-28T06:03:58;5.25;;;3.92;;
5900;SDS011;2976;49.764;9.796;2023-02-28T06:06:25;7.30;;;4.13;;
5900;SDS011;2976;49.764;9.796;2023-02-28T06:08:50;5.20;;;3.93;;
5900;SDS011;2976;49.764;9.796;2023-02-28T06:11:16;5.20;;;3.60;;
5900;SDS011;2976;49.764;9.796;2023-02-28T06:13:41;5.60;;;3.90;;
5900;SDS011;2976;49.764;9.796;2023-02-28T06:16:08;7.97;;;3.73;;
5900;SDS011;2976;49.764;9.796;2023-02-28T06:18:35;6.22;;;3.15;;
5900;SDS011;2976;49.764;9.796;2023-02-28T06:21:01;4.73;;;3.23;;
5900;SDS011;2976;49.764;9.796;2023-02-28T06:23:27;6.60;;;3.93;;
5900;SDS011;2976;49.764;9.796;2023-02-28T06:25:52;5.60;;;3.63;;
5900;SDS011;2976;49.764;9.796;2023-02-28T06:28:18;5.47;;;3.77;;
5900;SDS011;2976;49.764;9.796;2023-02-28T06:30:44;3.70;;;3.10;;
5900;SDS011;2976;49.764;9.796;2023-02-28T06:33:09;5.07;;;3.47;;
5900;SDS011;2976;49.764;9.796;2023-02-28T06:35:35;3.70;;;2.83;;
5900;SDS011;2976;49.764;9.796;2023-02-28T06:38:00;3.30;;;2.90;;
5900;SDS011;2976;49.764;9.796;2023-02-28T06:40:26;6.20;;;2.47;;
5900;SDS011;2976;49.764;9.796;2023-02-28T06:42:52;4.83;;;3.10;;
5900;SDS011;2976;49.764;9.796;2023-02-28T06:45:17;6.77;;;3.40;;
5900;SDS011;2976;49.764;9.796;2023-02-28T06:47:43;3.43;;;3.07;;
5900;SDS011;2976;49.764;9.796;2023-02-28T06:50:09;6.67;;;3.40;;
5900;SDS011;2976;49.764;9.796;2023-02-28T06:52:37;3.35;;;2.53;;
5900;SDS011;2976;49.764;9.796;2023-02-28T06:55:06;4.65;;;3.58;;
5900;SDS011;2976;49.764;9.796;2023-02-28T06:57:34;4.78;;;3.63;;
5900;SDS011;2976;49.764;9.796;2023-02-28T07:00:01;9.13;;;3.70;;
5900;SDS011;2976;49.764;9.796;2023-02-28T07:02:29;7.95;;;3.33;;
5900;SDS011;2976;49.764;9.796;2023-02-28T07:04:56;4.18;;;3.78;;
5900;SDS011;2976;49.764;9.796;2023-02-28T07:07:22;4.80;;;3.53;;
5900;SDS011;2976;49.764;9.796;2023-02-28T07:09:47;7.03;;;3.90;;
5900;SDS011;2976;49.764;9.796;2023-02-28T07:12:13;3.63;;;2.70;;
5900;SDS011;2976;49.764;9.796;2023-02-28T07:14:38;5.73;;;3.60;;
5900;SDS011;2976;49.764;9.796;2023-02-28T07:17:04;3.90;;;3.30;;
5900;SDS011;2976;49.764;9.796;2023-02-28T07:19:32;8.43;;;3.75;;
5900;SDS011;2976;49.764;9.796;2023-02-28T07:21:57;10.70;;;3.50;;
5900;SDS011;2976;49.764;9.796;2023-02-28T07:24:23;7.07;;;3.53;;
5900;SDS011;2976;49.764;9.796;2023-02-28T07:26:53;6.75;;;3.70;;
5900;SDS011;2976;49.764;9.796;2023-02-28T07:29:18;5.87;;;3.60;;
5900;SDS011;2976;49.764;9.796;2023-02-28T07:31:44;5.20;;;3.73;;
5900;SDS011;2976;49.764;9.796;2023-02-28T07:34:09;4.97;;;3.73;;
5900;SDS011;2976;49.764;9.796;2023-02-28T07:36:35;6.70;;;4.00;;
5900;SDS011;2976;49.764;9.796;2023-02-28T07:39:00;8.77;;;4.10;;
5900;SDS011;2976;49.764;9.796;2023-02-28T07:41:26;7.80;;;3.83;;
5900;SDS011;2976;49.764;9.796;2023-02-28T07:43:55;5.37;;;3.90;;
5900;SDS011;2976;49.764;9.796;2023-02-28T07:46:22;11.05;;;4.40;;
5900;SDS011;2976;49.764;9.796;2023-02-28T07:48:48;5.73;;;3.57;;
5900;SDS011;2976;49.764;9.796;2023-02-28T07:51:13;6.10;;;4.07;;
5900;SDS011;2976;49.764;9.796;2023-02-28T07:53:39;5.80;;;3.93;;
5900;SDS011;2976;49.764;9.796;2023-02-28T07:56:05;6.17;;;3.50;;
5900;SDS011;2976;49.764;9.796;2023-02-28T07:58:31;5.90;;;4.00;;
5900;SDS011;2976;49.764;9.796;2023-02-28T08:00:56;9.73;;;4.50;;
5900;SDS011;2976;49.764;9.796;2023-02-28T08:03:29;10.00;;;4.27;;
5900;SDS011;2976;49.764;9.796;2023-02-28T08:05:54;6.30;;;4.40;;
5900;SDS011;2976;49.764;9.796;2023-02-28T08:08:20;8.00;;;4.80;;
5900;SDS011;2976;49.764;9.796;2023-02-28T08:10:45;6.63;;;4.43;;
5900;SDS011;2976;49.764;9.796;2023-02-28T08:13:11;7.87;;;4.50;;
5900;SDS011;2976;49.764;9.796;2023-02-28T08:15:36;7.43;;;4.10;;
5900;SDS011;2976;49.764;9.796;2023-02-28T08:18:02;8.00;;;4.10;;
5900;SDS011;2976;49.764;9.796;2023-02-28T08:20:28;4.77;;;4.10;;
5900;SDS011;2976;49.764;9.796;2023-02-28T08:22:53;5.87;;;4.17;;
5900;SDS011;2976;49.764;9.796;2023-02-28T08:25:19;7.87;;;4.83;;
5900;SDS011;2976;49.764;9.796;2023-02-28T08:27:45;8.43;;;4.33;;
5900;SDS011;2976;49.764;9.796;2023-02-28T08:30:12;6.20;;;4.27;;
5900;SDS011;2976;49.764;9.796;2023-02-28T08:32:39;8.67;;;5.23;;
5900;SDS011;2976;49.764;9.796;2023-02-28T08:35:05;7.23;;;4.30;;
5900;SDS011;2976;49.764;9.796;2023-02-28T08:37:31;7.47;;;4.47;;
5900;SDS011;2976;49.764;9.796;2023-02-28T08:39:57;6.53;;;4.97;;
5900;SDS011;2976;49.764;9.796;2023-02-28T08:42:23;5.37;;;4.50;;
5900;SDS011;2976;49.764;9.796;2023-02-28T08:44:48;5.87;;;4.60;;
5900;SDS011;2976;49.764;9.796;2023-02-28T08:47:14;7.50;;;5.30;;
5900;SDS011;2976;49.764;9.796;2023-02-28T08:49:39;7.93;;;5.40;;
5900;SDS011;2976;49.764;9.796;2023-02-28T08:52:05;6.50;;;4.67;;
5900;SDS011;2976;49.764;9.796;2023-02-28T08:54:31;7.10;;;3.70;;
5900;SDS011;2976;49.764;9.796;2023-02-28T08:56:58;6.60;;;4.63;;
5900;SDS011;2976;49.764;9.796;2023-02-28T08:59:23;11.80;;;4.67;;
5900;SDS011;2976;49.764;9.796;2023-02-28T09:01:49;9.40;;;4.90;;
5900;SDS011;2976;49.764;9.796;2023-02-28T09:04:14;8.53;;;5.20;;
5900;SDS011;2976;49.764;9.796;2023-02-28T09:06:40;6.03;;;4.57;;
5900;SDS011;2976;49.764;9.796;2023-02-28T09:09:05;7.80;;;5.13;;
5900;SDS011;2976;49.764;9.796;2023-02-28T09:11:32;10.40;;;5.20;;
5900;SDS011;2976;49.764;9.796;2023-02-28T09:13:58;9.53;;;5.47;;
5900;SDS011;2976;49.764;9.796;2023-02-28T09:16:25;9.57;;;5.50;;
5900;SDS011;2976;49.764;9.796;2023-02-28T09:18:51;8.23;;;5.70;;
5900;SDS011;2976;49.764;9.796;2023-02-28T09:21:17;9.47;;;5.90;;
5900;SDS011;2976;49.764;9.796;2023-02-28T09:23:44;9.33;;;5.90;;
5900;SDS011;2976;49.764;9.796;2023-02-28T09:26:15;8.30;;;5.63;;
5900;SDS011;2976;49.764;9.796;2023-02-28T09:28:42;7.43;;;5.70;;
5900;SDS011;2976;49.764;9.796;2023-02-28T09:31:15;7.90;;;5.10;;
5900;SDS011;2976;49.764;9.796;2023-02-28T09:33:45;7.60;;;5.03;;
5900;SDS011;2976;49.764;9.796;2023-02-28T09:36:11;10.03;;;6.10;;
5900;SDS011;2976;49.764;9.796;2023-02-28T09:38:37;8.07;;;5.50;;
5900;SDS011;2976;49.764;9.796;2023-02-28T09:41:08;8.37;;;5.80;;
5900;SDS011;2976;49.764;9.796;2023-02-28T09:43:39;12.87;;;5.40;;
5900;SDS011;2976;49.764;9.796;2023-02-28T09:49:10;8.17;;;4.90;;
5900;SDS011;2976;49.764;9.796;2023-02-28T09:54:16;7.00;;;5.40;;
5900;SDS011;2976;49.764;9.796;2023-02-28T09:56:56;9.37;;;5.90;;
5900;SDS011;2976;49.764;9.796;2023-02-28T10:05:12;8.00;;;5.30;;
5900;SDS011;2976;49.764;9.796;2023-02-28T10:12:46;7.40;;;4.90;;
5900;SDS011;2976;49.764;9.796;2023-02-28T10:15:15;8.40;;;5.33;;
5900;SDS011;2976;49.764;9.796;2023-02-28T10:17:42;6.50;;;4.90;;
5900;SDS011;2976;49.764;9.796;2023-02-28T10:20:12;11.50;;;5.20;;
5900;SDS011;2976;49.764;9.796;2023-02-28T10:25:50;7.47;;;5.30;;
5900;SDS011;2976;49.764;9.796;2023-02-28T10:28:21;8.00;;;5.97;;
5900;SDS011;2976;49.764;9.796;2023-02-28T10:30:50;13.47;;;5.60;;
5900;SDS011;2976;49.764;9.796;2023-02-28T10:35:45;8.53;;;5.40;;
5900;SDS011;2976;49.764;9.796;2023-02-28T10:38:15;11.10;;;6.20;;
5900;SDS011;2976;49.764;9.796;2023-02-28T10:40:46;8.07;;;5.07;;
5900;SDS011;2976;49.764;9.796;2023-02-28T10:45:37;7.70;;;5.23;;
5900;SDS011;2976;49.764;9.796;2023-02-28T10:48:26;11.47;;;5.93;;
5900;SDS011;2976;49.764;9.796;2023-02-28T10:50:52;11.70;;;6.60;;
5900;SDS011;2976;49.764;9.796;2023-02-28T10:55:58;7.97;;;6.10;;
5900;SDS011;2976;49.764;9.796;2023-02-28T10:58:44;7.97;;;4.90;;
5900;SDS011;2976;49.764;9.796;2023-02-28T11:01:16;8.27;;;5.20;;
5900;SDS011;2976;49.764;9.796;2023-02-28T11:03:46;7.97;;;5.47;;
5900;SDS011;2976;49.764;9.796;2023-02-28T11:06:14;6.43;;;5.50;;
5900;SDS011;2976;49.764;9.796;2023-02-28T11:08:55;8.03;;;5.37;;
5900;SDS011;2976;49.764;9.796;2023-02-28T11:11:24;8.20;;;5.97;;
5900;SDS011;2976;49.764;9.796;2023-02-28T11:13:53;8.60;;;5.30;;
5900;SDS011;2976;49.764;9.796;2023-02-28T11:16:21;13.33;;;5.70;;
5900;SDS011;2976;49.764;9.796;2023-02-28T11:18:58;8.77;;;5.57;;
5900;SDS011;2976;49.764;9.796;2023-02-28T11:21:30;15.10;;;5.67;;
5900;SDS011;2976;49.764;9.796;2023-02-28T11:24:06;6.50;;;4.80;;
5900;SDS011;2976;49.764;9.796;2023-02-28T11:26:39;7.03;;;5.33;;
5900;SDS011;2976;49.764;9.796;2023-02-28T11:29:10;10.70;;;6.10;;
5900;SDS011;2976;49.764;9.796;2023-02-28T11:31:42;7.90;;;5.37;;
5900;SDS011;2976;49.764;9.796;2023-02-28T11:34:22;8.10;;;5.43;;
5900;SDS011;2976;49.764;9.796;2023-02-28T11:36:50;7.17;;;5.10;;
5900;SDS011;2976;49.764;9.796;2023-02-28T11:39:18;7.60;;;5.43;;
5900;SDS011;2976;49.764;9.796;2023-02-28T11:50:19;6.87;;;5.37;;
5900;SDS011;2976;49.764;9.796;2023-02-28T11:52:56;7.37;;;5.03;;
5900;SDS011;2976;49.764;9.796;2023-02-28T11:55:48;10.50;;;6.17;;
5900;SDS011;2976;49.764;9.796;2023-02-28T11:58:26;9.50;;;6.13;;
5900;SDS011;2976;49.764;9.796;2023-02-28T12:06:41;8.70;;;6.30;;
5900;SDS011;2976;49.764;9.796;2023-02-28T12:11:55;8.50;;;6.40;;
5900;SDS011;2976;49.764;9.796;2023-02-28T12:17:55;11.03;;;6.00;;
5900;SDS011;2976;49.764;9.796;2023-02-28T12:20:55;13.57;;;6.87;;
5900;SDS011;2976;49.764;9.796;2023-02-28T12:29:17;8.47;;;5.83;;
5900;SDS011;2976;49.764;9.796;2023-02-28T12:32:03;7.63;;;5.80;;
5900;SDS011;2976;49.764;9.796;2023-02-28T12:34:55;6.43;;;5.30;;
5900;SDS011;2976;49.764;9.796;2023-02-28T12:37:33;9.47;;;5.93;;
5900;SDS011;2976;49.764;9.796;2023-02-28T12:40:11;8.40;;;5.60;;
5900;SDS011;2976;49.764;9.796;2023-02-28T12:42:42;7.93;;;5.83;;
5900;SDS011;2976;49.764;9.796;2023-02-28T12:45:15;9.60;;;5.30;;
5900;SDS011;2976;49.764;9.796;2023-02-28T12:47:52;13.13;;;5.10;;
5900;SDS011;2976;49.764;9.796;2023-02-28T12:50:24;10.13;;;5.57;;
5900;SDS011;2976;49.764;9.796;2023-02-28T12:52:56;10.13;;;5.73;;
5900;SDS011;2976;49.764;9.796;2023-02-28T12:55:44;6.60;;;5.20;;
5900;SDS011;2976;49.764;9.796;2023-02-28T12:58:17;8.30;;;5.10;;
5900;SDS011;2976;49.764;9.796;2023-02-28T13:01:16;7.00;;;5.27;;
5900;SDS011;2976;49.764;9.796;2023-02-28T13:09:22;11.87;;;6.40;;
5900;SDS011;2976;49.764;9.796;2023-02-28T13:11:48;10.53;;;6.30;;
5900;SDS011;2976;49.764;9.796;2023-02-28T13:19:21;14.73;;;7.53;;
5900;SDS011;2976;49.764;9.796;2023-02-28T13:21:49;13.97;;;7.60;;
5900;SDS011;2976;49.764;9.796;2023-02-28T13:29:34;9.13;;;6.53;;
5900;SDS011;2976;49.764;9.796;2023-02-28T13:34:37;10.07;;;5.97;;
5900;SDS011;2976;49.764;9.796;2023-02-28T13:52:45;9.93;;;6.07;;
5900;SDS011;2976;49.764;9.796;2023-02-28T13:55:24;8.30;;;6.53;;
5900;SDS011;2976;49.764;9.796;2023-02-28T13:58:04;9.10;;;5.83;;
5900;SDS011;2976;49.764;9.796;2023-02-28T14:01:37;14.30;;;7.37;;
5900;SDS011;2976;49.764;9.796;2023-02-28T14:11:24;10.30;;;6.60;;
5900;SDS011;2976;49.764;9.796;2023-02-28T14:13:52;10.90;;;6.50;;
5900;SDS011;2976;49.764;9.796;2023-02-28T14:16:20;9.80;;;6.43;;
5900;SDS011;2976;49.764;9.796;2023-02-28T14:18:49;8.93;;;6.43;;
5900;SDS011;2976;49.764;9.796;2023-02-28T14:21:21;8.63;;;5.87;;
5900;SDS011;2976;49.764;9.796;2023-02-28T14:27:13;8.10;;;6.60;;
5900;SDS011;2976;49.764;9.796;2023-02-28T14:30:03;12.50;;;6.70;;
5900;SDS011;2976;49.764;9.796;2023-02-28T14:38:27;16.07;;;7.10;;
5900;SDS011;2976;49.764;9.796;2023-02-28T14:41:26;12.60;;;7.10;;
5900;SDS011;2976;49.764;9.796;2023-02-28T14:44:02;9.57;;;6.93;;
5900;SDS011;2976;49.764;9.796;2023-02-28T14:46:49;11.87;;;6.50;;
5900;SDS011;2976;49.764;9.796;2023-02-28T14:49:21;10.50;;;6.80;;
5900;SDS011;2976;49.764;9.796;2023-02-28T14:54:52;12.97;;;6.57;;
5900;SDS011;2976;49.764;9.796;2023-02-28T14:57:27;9.17;;;6.03;;
5900;SDS011;2976;49.764;9.796;2023-02-28T15:00:06;8.57;;;5.60;;
5900;SDS011;2976;49.764;9.796;2023-02-28T15:02:40;8.77;;;6.40;;
5900;SDS011;2976;49.764;9.796;2023-02-28T15:07:35;12.03;;;7.07;;
5900;SDS011;2976;49.764;9.796;2023-02-28T15:10:18;8.50;;;6.27;;
5900;SDS011;2976;49.764;9.796;2023-02-28T15:12:58;13.10;;;6.37;;
5900;SDS011;2976;49.764;9.796;2023-02-28T15:15:27;8.83;;;6.13;;
5900;SDS011;2976;49.764;9.796;2023-02-28T15:18:00;11.67;;;6.47;;
5900;SDS011;2976;49.764;9.796;2023-02-28T15:20:29;9.70;;;6.30;;
5900;SDS011;2976;49.764;9.796;2023-02-28T15:22:56;8.67;;;6.50;;
5900;SDS011;2976;49.764;9.796;2023-02-28T15:25:22;12.30;;;6.77;;
5900;SDS011;2976;49.764;9.796;2023-02-28T15:27:49;9.30;;;6.30;;
5900;SDS011;2976;49.764;9.796;2023-02-28T15:30:27;16.10;;;7.27;;
5900;SDS011;2976;49.764;9.796;2023-02-28T15:35:33;8.03;;;6.37;;
5900;SDS011;2976;49.764;9.796;2023-02-28T15:43:45;12.57;;;7.47;;
5900;SDS011;2976;49.764;9.796;2023-02-28T15:46:10;25.90;;;12.03;;
5900;SDS011;2976;49.764;9.796;2023-02-28T15:48:44;42.97;;;14.70;;
5900;SDS011;2976;49.764;9.796;2023-02-28T15:51:32;30.90;;;10.70;;
5900;SDS011;2976;49.764;9.796;2023-02-28T15:54:00;95.17;;;26.73;;
5900;SDS011;2976;49.764;9.796;2023-02-28T15:56:31;38.33;;;14.27;;
5900;SDS011;2976;49.764;9.796;2023-02-28T15:58:59;29.03;;;10.47;;
5900;SDS011;2976;49.764;9.796;2023-02-28T16:01:28;12.30;;;7.10;;
5900;SDS011;2976;49.764;9.796;2023-02-28T16:03:56;30.13;;;11.00;;
5900;SDS011;2976;49.764;9.796;2023-02-28T16:06:40;25.07;;;9.70;;
5900;SDS011;2976;49.764;9.796;2023-02-28T16:09:09;34.80;;;12.90;;
5900;SDS011;2976;49.764;9.796;2023-02-28T16:11:46;11.40;;;7.23;;
5900;SDS011;2976;49.764;9.796;2023-02-28T16:14:17;18.47;;;7.00;;
5900;SDS011;2976;49.764;9.796;2023-02-28T16:16:49;16.30;;;7.10;;
5900;SDS011;2976;49.764;9.796;2023-02-28T16:19:17;12.17;;;7.40;;
5900;SDS011;2976;49.764;9.796;2023-02-28T16:21:43;9.90;;;7.10;;
5900;SDS011;2976;49.764;9.796;2023-02-28T16:24:10;11.27;;;6.93;;
5900;SDS011;2976;49.764;9.796;2023-02-28T16:26:35;12.17;;;6.70;;
5900;SDS011;2976;49.764;9.796;2023-02-28T16:29:04;10.87;;;6.20;;
5900;SDS011;2976;49.764;9.796;2023-02-28T16:31:30;19.40;;;6.40;;
5900;SDS011;2976;49.764;9.796;2023-02-28T16:34:00;10.27;;;5.73;;
5900;SDS011;2976;49.764;9.796;2023-02-28T16:36:25;9.23;;;5.90;;
5900;SDS011;2976;49.764;9.796;2023-02-28T16:38:52;11.43;;;6.47;;
5900;SDS011;2976;49.764;9.796;2023-02-28T16:41:20;8.13;;;6.00;;
5900;SDS011;2976;49.764;9.796;2023-02-28T16:43:48;9.80;;;6.03;;
5900;SDS011;2976;49.764;9.796;2023-02-28T16:46:16;17.00;;;7.13;;
5900;SDS011;2976;49.764;9.796;2023-02-28T16:48:43;16.63;;;8.27;;
5900;SDS011;2976;49.764;9.796;2023-02-28T16:51:13;17.57;;;9.27;;
5900;SDS011;2976;49.764;9.796;2023-02-28T16:53:40;32.43;;;13.83;;
5900;SDS011;2976;49.764;9.796;2023-02-28T16:56:06;28.83;;;11.10;;
5900;SDS011;2976;49.764;9.796;2023-02-28T16:58:43;24.10;;;12.37;;
5900;SDS011;2976;49.764;9.796;2023-02-28T17:01:09;14.63;;;8.57;;
5900;SDS011;2976;49.764;9.796;2023-02-28T17:03:35;28.20;;;12.50;;
5900;SDS011;2976;49.764;9.796;2023-02-28T17:06:01;17.97;;;7.50;;
5900;SDS011;2976;49.764;9.796;2023-02-28T17:08:28;16.90;;;8.63;;
5900;SDS011;2976;49.764;9.796;2023-02-28T17:10:54;20.33;;;7.30;;
5900;SDS011;2976;49.764;9.796;2023-02-28T17:13:20;12.23;;;7.40;;
5900;SDS011;2976;49.764;9.796;2023-02-28T17:15:45;15.23;;;7.67;;
5900;SDS011;2976;49.764;9.796;2023-02-28T17:18:13;20.40;;;9.13;;
5900;SDS011;2976;49.764;9.796;2023-02-28T17:20:43;14.17;;;7.80;;
5900;SDS011;2976;49.764;9.796;2023-02-28T17:23:10;11.23;;;7.30;;
5900;SDS011;2976;49.764;9.796;2023-02-28T17:25:36;17.27;;;8.07;;
5900;SDS011;2976;49.764;9.796;2023-02-28T17:28:01;15.63;;;7.67;;
5900;SDS011;2976;49.764;9.796;2023-02-28T17:30:27;12.43;;;7.47;;
5900;SDS011;2976;49.764;9.796;2023-02-28T17:32:54;16.73;;;7.07;;
5900;SDS011;2976;49.764;9.796;2023-02-28T17:35:20;15.83;;;6.47;;
5900;SDS011;2976;49.764;9.796;2023-02-28T17:37:46;10.50;;;5.97;;
5900;SDS011;2976;49.764;9.796;2023-02-28T17:40:15;9.00;;;5.20;;
5900;SDS011;2976;49.764;9.796;2023-02-28T17:42:44;10.37;;;5.70;;
5900;SDS011;2976;49.764;9.796;2023-02-28T17:45:10;13.97;;;7.30;;
5900;SDS011;2976;49.764;9.796;2023-02-28T17:47:36;12.00;;;6.60;;
5900;SDS011;2976;49.764;9.796;2023-02-28T17:50:02;9.27;;;5.83;;
5900;SDS011;2976;49.764;9.796;2023-02-28T17:52:28;14.07;;;6.70;;
5900;SDS011;2976;49.764;9.796;2023-02-28T17:54:54;10.70;;;7.13;;
5900;SDS011;2976;49.764;9.796;2023-02-28T17:57:20;14.60;;;7.57;;
5900;SDS011;2976;49.764;9.796;2023-02-28T17:59:46;15.40;;;8.37;;
5900;SDS011;2976;49.764;9.796;2023-02-28T18:02:12;16.57;;;8.67;;